Time;durP1;ratioP1;P1;durP2;ratioP2;P2;SDS_P1;SDS_P2;PMS_P1;PMS_P2;Temp;Humidity;BMP_temperature;BMP_pressure;BME280_temperature;BME280_humidity;BME280_pressure;Samples;Min_cycle;Max_cycle;Signal;HPM_P1;HPM_P2
2023/01/25 00:01:26;;;;;;;;;;;;;;;1.86;76.13;103411.09;4123787;28;20431;-62
2023/01/25 00:03:29;;;;;;;;;;;;;;;1.87;76.00;103401.34;4124134;28;20045;-63
2023/01/25 00:05:31;;;;;;;;;;;;;;;1.86;76.36;103389.78;4122343;28;20439;-62
2023/01/25 00:07:34;;;;;;;;;;;;;;;1.88;76.33;103387.06;4121993;28;20024;-63
2023/01/25 00:09:36;;;;;;;;;;;;;;;1.89;76.27;103383.47;4123223;28;20016;-63
2023/01/25 00:11:38;;;;;;;;;;;;;;;1.89;76.12;103375.50;4121810;28;19976;-63
2023/01/25 00:13:40;;;;;;;;;;;;;;;1.87;75.75;103375.53;4124122;28;20025;-62
2023/01/25 00:15:42;;;;;;;;;;;;;;;1.88;76.09;103377.28;4123008;28;20028;-63
2023/01/25 00:17:44;;;;;;;;;;;;;;;1.87;75.95;103372.03;4122591;28;20001;-63
2023/01/25 00:19:46;;;;;;;;;;;;;;;1.88;76.16;103369.28;4123892;28;20029;-63
2023/01/25 00:21:48;;;;;;;;;;;;;;;1.88;76.14;103363.06;4122199;28;20366;-62
2023/01/25 00:23:51;;;;;;;;;;;;;;;1.89;76.01;103359.50;4124547;28;20045;-62
2023/01/25 00:25:58;;;;;;;;;;;;;;;1.89;76.15;103352.34;4123524;28;20409;-62
2023/01/25 00:28:00;;;;;;;;;;;;;;;1.90;76.02;103345.25;4123719;28;20464;-61
2023/01/25 00:30:03;;;;;;;;;;;;;;;1.89;76.12;103339.03;4122672;28;20029;-62
2023/01/25 00:32:29;;;;;;;;;;;;;;;1.91;76.26;103338.97;4122946;28;19992;-62
2023/01/25 00:34:47;;;;;;;;;;;;;;;1.91;76.12;103329.22;4124330;28;20032;-61
2023/01/25 00:36:49;;;;;;;;;;;;;;;1.93;75.91;103313.16;4120480;28;20009;-61
2023/01/25 00:38:54;;;;;;;;;;;;;;;1.91;75.79;103299.88;4122157;28;19933;-61
2023/01/25 00:40:57;;;;;;;;;;;;;;;1.91;76.00;103297.22;4121935;28;20009;-62
2023/01/25 00:42:59;;;;;;;;;;;;;;;1.92;75.85;103290.09;4122012;28;20456;-63
2023/01/25 00:45:02;;;;;;;;;;;;;;;1.93;76.10;103289.16;4122398;28;20056;-63
2023/01/25 00:47:04;;;;;;;;;;;;;;;1.96;76.10;103295.25;4122672;28;20372;-63
2023/01/25 00:49:11;;;;;;;;;;;;;;;1.98;75.78;103289.84;4124436;28;20448;-61
2023/01/25 00:51:14;;;;;;;;;;;;;;;1.96;75.93;103294.38;4129703;28;20016;-61
2023/01/25 00:53:16;;;;;;;;;;;;;;;1.94;75.63;103285.56;4123315;28;20694;-62
2023/01/25 00:55:20;;;;;;;;;;;;;;;1.92;75.61;103280.28;4123938;28;20017;-62
2023/01/25 00:57:23;;;;;;;;;;;;;;;1.91;75.79;103277.69;4122560;28;20033;-62
2023/01/25 00:59:25;;;;;;;;;;;;;;;1.89;75.93;103267.06;4138868;28;20080;-61
2023/01/25 01:01:29;;;;;;;;;;;;;;;1.90;76.08;103268.81;4122110;28;20568;-64
2023/01/25 01:03:31;;;;;;;;;;;;;;;1.91;75.84;103272.34;4122699;28;20017;-61
2023/01/25 01:05:35;;;;;;;;;;;;;;;1.93;75.81;103278.50;4123162;28;20013;-62
2023/01/25 01:07:37;;;;;;;;;;;;;;;1.93;75.76;103283.84;4123283;28;20542;-61
2023/01/25 01:09:39;;;;;;;;;;;;;;;1.90;75.98;103276.81;4123455;28;20033;-63
2023/01/25 01:11:42;;;;;;;;;;;;;;;1.91;75.95;103281.22;4120676;28;20029;-62
2023/01/25 01:13:44;;;;;;;;;;;;;;;1.91;75.86;103288.34;4122534;28;20412;-61
2023/01/25 01:15:46;;;;;;;;;;;;;;;1.91;75.79;103285.66;4139342;28;20020;-61
2023/01/25 01:17:48;;;;;;;;;;;;;;;1.89;75.68;103288.41;4121658;28;20427;-62
2023/01/25 01:19:51;;;;;;;;;;;;;;;1.88;75.74;103285.78;4123288;28;20012;-62
2023/01/25 01:21:53;;;;;;;;;;;;;;;1.87;75.69;103284.94;4121307;28;20444;-62
2023/01/25 01:23:55;;;;;;;;;;;;;;;1.87;75.88;103287.59;4123128;28;20448;-61
2023/01/25 01:25:59;;;;;;;;;;;;;;;1.89;76.03;103283.06;4123284;28;20017;-61
2023/01/25 01:28:02;;;;;;;;;;;;;;;1.93;75.94;103283.84;4123512;28;20020;-61
2023/01/25 01:30:05;;;;;;;;;;;;;;;1.92;75.99;103280.28;4123157;28;20370;-62
2023/01/25 01:32:07;;;;;;;;;;;;;;;1.94;75.75;103285.56;4120684;28;20019;-61
2023/01/25 01:34:10;;;;;;;;;;;;;;;1.92;75.75;103282.94;4138227;28;19925;-61
2023/01/25 01:36:14;;;;;;;;;;;;;;;1.92;75.87;103277.63;4122583;28;20026;-62
2023/01/25 01:38:16;;;;;;;;;;;;;;;1.94;75.83;103280.22;4122802;28;20456;-61
2023/01/25 01:40:18;;;;;;;;;;;;;;;1.92;75.86;103277.63;4123236;28;20019;-62
2023/01/25 01:42:20;;;;;;;;;;;;;;;1.92;75.71;103279.44;4121636;28;20025;-62
2023/01/25 01:44:37;;;;;;;;;;;;;;;1.93;76.03;103281.19;4122387;28;20024;-62
2023/01/25 01:46:41;;;;;;;;;;;;;;;1.93;76.10;103276.69;4121959;28;20017;-61
2023/01/25 01:48:49;;;;;;;;;;;;;;;1.94;76.30;103274.91;4122283;28;20021;-62
2023/01/25 01:50:53;;;;;;;;;;;;;;;1.96;75.95;103283.72;4130211;28;20391;-62
2023/01/25 01:52:55;;;;;;;;;;;;;;;1.95;76.15;103274.84;4120283;28;20042;-61
2023/01/25 01:54:57;;;;;;;;;;;;;;;1.95;75.99;103274.84;4122881;28;20037;-62
2023/01/25 01:57:00;;;;;;;;;;;;;;;1.95;75.80;103276.66;4120596;28;20017;-62
2023/01/25 01:59:06;;;;;;;;;;;;;;;1.95;76.00;103273.97;4122821;28;20017;-63
2023/01/25 02:01:09;;;;;;;;;;;;;;;1.96;76.03;103273.06;4120648;28;20009;-63
2023/01/25 02:03:12;;;;;;;;;;;;;;;1.95;76.15;103279.31;4122792;28;20494;-62
2023/01/25 02:05:17;;;;;;;;;;;;;;;1.95;76.09;103273.97;4121790;28;20021;-61
2023/01/25 02:07:21;;;;;;;;;;;;;;;1.93;75.98;103273.19;4120019;28;20020;-63
2023/01/25 02:09:23;;;;;;;;;;;;;;;1.90;76.15;103271.50;4121410;28;20016;-63
2023/01/25 02:11:26;;;;;;;;;;;;;;;1.90;76.08;103266.16;4121636;28;20025;-63
2023/01/25 02:13:30;;;;;;;;;;;;;;;1.91;76.24;103275.00;4122370;28;20020;-62
2023/01/25 02:15:34;;;;;;;;;;;;;;;1.90;76.32;103270.63;4121956;28;19926;-63
2023/01/25 02:17:37;;;;;;;;;;;;;;;1.91;76.47;103267.91;4121531;28;20452;-63
2023/01/25 02:19:43;;;;;;;;;;;;;;;1.92;76.55;103268.75;4121406;28;20096;-63
2023/01/25 02:21:45;;;;;;;;;;;;;;;1.90;76.45;103268.81;4129052;28;19926;-62
2023/01/25 02:23:48;;;;;;;;;;;;;;;1.89;76.36;103258.22;4121919;28;20017;-62
2023/01/25 02:25:51;;;;;;;;;;;;;;;1.86;76.33;103259.19;4120830;28;20016;-62
2023/01/25 02:27:54;;;;;;;;;;;;;;;1.88;76.44;103265.34;4122159;28;20008;-61
2023/01/25 02:29:56;;;;;;;;;;;;;;;1.89;76.65;103260.88;4121643;28;20371;-63
2023/01/25 02:32:02;;;;;;;;;;;;;;;1.89;76.74;103255.56;4121579;28;20030;-63
2023/01/25 02:34:04;;;;;;;;;;;;;;;1.88;77.01;103262.69;4121930;28;20058;-61
2023/01/25 02:36:15;;;;;;;;;;;;;;;1.89;77.08;103256.41;4122223;28;19932;-63
2023/01/25 02:38:21;;;;;;;;;;;;;;;1.92;77.13;103260.78;4128394;28;20016;-62
2023/01/25 02:40:26;;;;;;;;;;;;;;;1.91;76.90;103257.25;4120269;28;20017;-63
2023/01/25 02:42:32;;;;;;;;;;;;;;;1.93;77.05;103260.72;4121482;28;20672;-62
2023/01/25 02:44:36;;;;;;;;;;;;;;;1.94;76.84;103257.13;4121326;28;20435;-62
2023/01/25 02:46:39;;;;;;;;;;;;;;;1.93;76.85;103251.84;4121947;28;20013;-62
2023/01/25 02:48:41;;;;;;;;;;;;;;;1.91;76.84;103246.59;4122311;28;20547;-62
2023/01/25 02:50:44;;;;;;;;;;;;;;;1.93;77.12;103246.53;4121152;28;20472;-63
2023/01/25 02:52:47;;;;;;;;;;;;;;;1.91;77.04;103243.03;4120414;28;20496;-63
2023/01/25 02:54:49;;;;;;;;;;;;;;;1.91;76.90;103235.94;4136574;28;20040;-63
2023/01/25 02:56:51;;;;;;;;;;;;;;;1.91;77.15;103237.69;4120560;28;19930;-63
2023/01/25 02:58:54;;;;;;;;;;;;;;;1.92;77.31;103231.44;4121333;28;20487;-63
2023/01/25 03:00:57;;;;;;;;;;;;;;;1.91;77.14;103233.25;4121420;28;20377;-63
2023/01/25 03:02:59;;;;;;;;;;;;;;;1.92;77.26;103229.66;4122330;28;20024;-63
2023/01/25 03:05:01;;;;;;;;;;;;;;;1.93;77.37;103234.06;4120655;28;20051;-63
2023/01/25 03:07:03;;;;;;;;;;;;;;;1.93;77.42;103234.06;4120336;28;20399;-63
2023/01/25 03:09:06;;;;;;;;;;;;;;;1.94;77.20;103238.47;4119038;28;20024;-63
2023/01/25 03:11:08;;;;;;;;;;;;;;;1.93;77.24;103234.06;4119861;28;20041;-63
2023/01/25 03:13:12;;;;;;;;;;;;;;;1.91;77.05;103225.25;4121395;28;19932;-63
2023/01/25 03:15:15;;;;;;;;;;;;;;;1.90;77.47;103223.50;4120366;28;20024;-62
2023/01/25 03:17:17;;;;;;;;;;;;;;;1.90;77.58;103225.31;4118565;28;20435;-63
2023/01/25 03:19:20;;;;;;;;;;;;;;;1.90;77.73;103228.84;4121491;28;20027;-63
2023/01/25 03:21:23;;;;;;;;;;;;;;;1.91;77.63;103222.59;4134341;28;20012;-63
2023/01/25 03:23:25;;;;;;;;;;;;;;;1.92;77.58;103226.13;4120343;28;19938;-64
2023/01/25 03:25:28;;;;;;;;;;;;;;;1.93;77.63;103219.88;4127531;28;20040;-63
2023/01/25 03:27:36;;;;;;;;;;;;;;;1.93;77.50;103222.53;4128260;28;20028;-63
2023/01/25 03:29:43;;;;;;;;;;;;;;;1.91;77.49;103219.03;4120779;28;20020;-63
2023/01/25 03:31:51;;;;;;;;;;;;;;;1.93;77.80;103222.53;4125598;28;20032;-63
2023/01/25 03:33:53;;;;;;;;;;;;;;;1.92;77.98;103218.97;4119659;28;20377;-63
2023/01/25 03:36:00;;;;;;;;;;;;;;;1.93;77.96;103219.88;4119636;28;20064;-63
2023/01/25 03:38:02;;;;;;;;;;;;;;;1.93;77.86;103207.41;4118912;28;20419;-63
2023/01/25 03:40:05;;;;;;;;;;;;;;;1.94;77.95;103210.94;4119133;28;20029;-62
2023/01/25 03:42:08;;;;;;;;;;;;;;;1.93;77.70;103211.88;4127735;28;20024;-63
2023/01/25 03:44:10;;;;;;;;;;;;;;;1.93;77.84;103203.88;4120195;28;20340;-63
2023/01/25 03:46:12;;;;;;;;;;;;;;;1.94;78.04;103205.59;4119652;28;20033;-62
2023/01/25 03:48:16;;;;;;;;;;;;;;;1.95;78.02;103204.69;4120712;28;20024;-63
2023/01/25 03:50:18;;;;;;;;;;;;;;;1.94;77.83;103203.81;4120063;28;20483;-63
2023/01/25 03:52:23;;;;;;;;;;;;;;;1.93;77.96;103207.41;4119666;28;20032;-64
2023/01/25 03:54:25;;;;;;;;;;;;;;;1.93;78.22;103207.41;4119795;28;20756;-63
2023/01/25 03:56:27;;;;;;;;;;;;;;;1.96;78.29;103199.28;4120103;28;19926;-63
2023/01/25 03:58:39;;;;;;;;;;;;;;;1.98;78.21;103199.22;4120079;28;20432;-63
2023/01/25 04:00:43;;;;;;;;;;;;;;;1.97;78.05;103192.16;4119291;28;20025;-63
2023/01/25 04:02:45;;;;;;;;;;;;;;;1.96;78.14;103193.09;4120564;28;20653;-63
2023/01/25 04:04:52;;;;;;;;;;;;;;;1.92;78.18;103187.00;4120670;28;20025;-63
2023/01/25 04:06:56;;;;;;;;;;;;;;;1.93;78.29;103183.41;4125667;28;20024;-61
2023/01/25 04:08:59;;;;;;;;;;;;;;;1.96;78.35;103183.28;4119491;28;20500;-63
2023/01/25 04:11:08;;;;;;;;;;;;;;;1.99;78.48;103179.63;4118457;28;20013;-60
2023/01/25 04:13:10;;;;;;;;;;;;;;;2.01;78.23;103176.91;4120029;28;20065;-63
2023/01/25 04:15:12;;;;;;;;;;;;;;;2.02;78.18;103178.63;4119912;28;20017;-63
2023/01/25 04:17:15;;;;;;;;;;;;;;;2.01;78.17;103167.13;4127320;28;20021;-63
2023/01/25 04:19:24;;;;;;;;;;;;;;;2.01;78.24;103166.22;4120693;28;20029;-62
2023/01/25 04:21:27;;;;;;;;;;;;;;;1.96;78.09;103159.31;4119520;28;20391;-63
2023/01/25 04:23:29;;;;;;;;;;;;;;;1.97;78.38;103157.50;4120814;28;20024;-63
2023/01/25 04:25:31;;;;;;;;;;;;;;;1.97;78.41;103153.06;4119835;28;20017;-63
2023/01/25 04:27:34;;;;;;;;;;;;;;;2.01;78.59;103152.91;4119378;28;20017;-62
2023/01/25 04:29:43;;;;;;;;;;;;;;;2.01;78.70;103143.13;4120582;28;19961;-62
2023/01/25 04:31:51;;;;;;;;;;;;;;;2.06;78.49;103143.81;4119887;28;20025;-63
2023/01/25 04:33:54;;;;;;;;;;;;;;;2.10;78.51;103145.44;4120414;28;20021;-61
2023/01/25 04:35:58;;;;;;;;;;;;;;;2.13;78.51;103142.63;4119693;28;20353;-63
2023/01/25 04:38:02;;;;;;;;;;;;;;;2.13;78.54;103142.63;4137579;28;19930;-62
2023/01/25 04:40:11;;;;;;;;;;;;;;;2.11;78.25;103143.63;4135574;28;19933;-63
2023/01/25 04:42:18;;;;;;;;;;;;;;;2.07;78.34;103134.88;4119238;28;20014;-62
2023/01/25 04:44:24;;;;;;;;;;;;;;;2.02;78.52;103136.00;4119741;28;20024;-62
2023/01/25 04:46:26;;;;;;;;;;;;;;;2.02;78.82;103138.66;4121055;28;20017;-62
2023/01/25 04:48:28;;;;;;;;;;;;;;;2.03;78.85;103129.75;4139076;28;20650;-62
2023/01/25 04:50:35;;;;;;;;;;;;;;;2.03;78.79;103127.94;4122560;28;20012;-62
2023/01/25 04:52:37;;;;;;;;;;;;;;;2.02;79.00;103133.31;4122283;28;20020;-61
2023/01/25 04:54:40;;;;;;;;;;;;;;;2.01;79.27;103128.91;4123108;28;20028;-62
2023/01/25 04:56:43;;;;;;;;;;;;;;;2.02;79.36;103128.00;4138105;28;20056;-62
2023/01/25 04:58:45;;;;;;;;;;;;;;;2.01;79.35;103121.81;4122742;28;20077;-60
2023/01/25 05:00:47;;;;;;;;;;;;;;;2.06;79.47;103121.63;4120958;28;19936;-62
2023/01/25 05:02:49;;;;;;;;;;;;;;;2.07;79.13;103118.00;4123046;28;20559;-61
2023/01/25 05:04:51;;;;;;;;;;;;;;;2.07;79.38;103118.00;4122625;28;20045;-60
2023/01/25 05:06:55;;;;;;;;;;;;;;;2.03;79.54;103114.59;4138499;28;20008;-61
2023/01/25 05:08:57;;;;;;;;;;;;;;;2.03;79.60;103111.09;4121386;28;20442;-61
2023/01/25 05:11:01;;;;;;;;;;;;;;;2.06;79.72;103110.97;4121094;28;20026;-61
2023/01/25 05:13:19;;;;;;;;;;;;;;;2.07;79.68;103107.34;4123134;28;20057;-59
2023/01/25 05:15:22;;;;;;;;;;;;;;;2.09;79.77;103111.69;4121723;28;20020;-62
2023/01/25 05:17:24;;;;;;;;;;;;;;;2.12;79.78;103116.91;4122463;28;20016;-61
2023/01/25 05:19:26;;;;;;;;;;;;;;;2.15;79.47;103108.78;4122245;28;20028;-61
2023/01/25 05:23:53;;;;;;;;;;;;;;;2.17;79.27;103108.72;4122441;28;20068;-61
2023/01/25 05:28:17;;;;;;;;;;;;;;;2.17;79.46;103101.56;4138049;28;20657;-60
2023/01/25 05:30:39;;;;;;;;;;;;;;;2.19;79.71;103106.84;4115176;28;20037;-60
2023/01/25 05:32:55;;;;;;;;;;;;;;;2.19;79.65;103108.66;4122101;28;21572;-61
2023/01/25 05:34:59;;;;;;;;;;;;;;;2.16;79.68;103109.63;4122823;28;20025;-61
2023/01/25 05:37:01;;;;;;;;;;;;;;;2.13;79.93;103107.97;4123708;28;20436;-61
2023/01/25 05:39:05;;;;;;;;;;;;;;;2.10;80.01;103101.88;4129751;28;20479;-61
2023/01/25 05:41:07;;;;;;;;;;;;;;;2.10;80.06;103109.88;4123292;28;20051;-60
2023/01/25 05:43:09;;;;;;;;;;;;;;;2.11;79.77;103114.28;4123763;28;19930;-60
2023/01/25 05:45:13;;;;;;;;;;;;;;;2.09;80.04;103111.69;4121873;28;20021;-62
2023/01/25 05:47:17;;;;;;;;;;;;;;;2.06;80.17;103113.63;4122370;28;20353;-61
2023/01/25 05:49:19;;;;;;;;;;;;;;;2.06;80.47;103101.16;4129709;28;20032;-60
2023/01/25 05:51:21;;;;;;;;;;;;;;;2.06;80.40;103100.28;4128499;28;20017;-60
2023/01/25 05:53:24;;;;;;;;;;;;;;;2.08;80.43;103107.28;4121759;28;20025;-61
2023/01/25 05:55:26;;;;;;;;;;;;;;;2.08;80.49;103109.94;4123170;28;20021;-60
2023/01/25 05:57:29;;;;;;;;;;;;;;;2.07;80.61;103113.56;4120340;28;19933;-61
2023/01/25 05:59:34;;;;;;;;;;;;;;;2.06;80.55;103105.63;4128873;28;20024;-61
2023/01/25 06:01:37;;;;;;;;;;;;;;;2.04;80.79;103108.34;4119763;28;20037;-61
2023/01/25 06:03:39;;;;;;;;;;;;;;;2.03;80.62;103109.28;4119732;28;19930;-62
2023/01/25 06:05:41;;;;;;;;;;;;;;;2.04;80.90;103103.03;4124767;28;20044;-61
2023/01/25 06:07:43;;;;;;;;;;;;;;;2.07;80.65;103099.34;4119311;28;20021;-61
2023/01/25 06:09:46;;;;;;;;;;;;;;;2.05;80.87;103102.06;4119397;28;20548;-61
2023/01/25 06:11:49;;;;;;;;;;;;;;;2.05;80.80;103090.56;4121494;28;20017;-60
2023/01/25 06:13:51;;;;;;;;;;;;;;;2.02;81.01;103088.00;4118819;28;19958;-61
2023/01/25 06:15:53;;;;;;;;;;;;;;;2.00;81.08;103088.06;4118912;28;20733;-60
2023/01/25 06:18:25;;;;;;;;;;;;;;;2.03;81.09;103085.28;4111590;28;20017;-60
2023/01/25 06:20:46;;;;;;;;;;;;;;;2.04;81.15;103088.81;4120503;28;20029;-62
2023/01/25 06:22:49;;;;;;;;;;;;;;;2.05;81.18;103085.22;4119511;28;20451;-61
2023/01/25 06:24:51;;;;;;;;;;;;;;;2.06;80.89;103087.81;4119656;28;19973;-61
2023/01/25 06:26:53;;;;;;;;;;;;;;;2.08;80.87;103079.75;4116881;28;20018;-61
2023/01/25 06:28:55;;;;;;;;;;;;;;;2.11;80.54;103077.81;4119220;28;20021;-62
2023/01/25 06:30:57;;;;;;;;;;;;;;;2.12;80.72;103073.38;4119558;28;20117;-62
2023/01/25 06:32:59;;;;;;;;;;;;;;;2.13;80.51;103072.44;4119388;28;20021;-62
2023/01/25 06:35:02;;;;;;;;;;;;;;;2.12;80.70;103068.06;4119210;28;20065;-61
2023/01/25 06:37:04;;;;;;;;;;;;;;;2.13;80.49;103077.75;4127042;28;20025;-61
2023/01/25 06:39:06;;;;;;;;;;;;;;;2.13;80.61;103081.31;4121187;28;20017;-61
2023/01/25 06:41:10;;;;;;;;;;;;;;;2.13;80.45;103083.09;4120445;28;20020;-60
2023/01/25 06:43:12;;;;;;;;;;;;;;;2.16;80.67;103082.97;4121572;28;20028;-61
2023/01/25 06:45:14;;;;;;;;;;;;;;;2.17;80.61;103084.72;4122629;28;19930;-61
2023/01/25 06:47:16;;;;;;;;;;;;;;;2.19;80.43;103076.66;4120275;28;20022;-61
2023/01/25 06:49:18;;;;;;;;;;;;;;;2.20;80.22;103084.59;4121009;28;20364;-61
2023/01/25 06:51:21;;;;;;;;;;;;;;;2.23;79.93;103084.44;4118208;28;20021;-61
2023/01/25 06:53:24;;;;;;;;;;;;;;;2.25;79.75;103074.59;4121881;28;20036;-60
2023/01/25 06:55:26;;;;;;;;;;;;;;;2.27;79.67;103063.84;4121696;28;20053;-62
2023/01/25 06:57:28;;;;;;;;;;;;;;;2.28;79.39;103061.13;4121407;28;20020;-60
2023/01/25 06:59:30;;;;;;;;;;;;;;;2.27;79.36;103061.19;4121628;28;20029;-60
2023/01/25 07:01:32;;;;;;;;;;;;;;;2.23;79.53;103048.94;4120961;28;20012;-61
2023/01/25 07:03:34;;;;;;;;;;;;;;;2.23;79.27;103051.59;4121585;28;20463;-61
2023/01/25 07:05:36;;;;;;;;;;;;;;;2.21;79.56;103043.66;4121364;28;19965;-61
2023/01/25 07:07:39;;;;;;;;;;;;;;;2.23;79.50;103052.47;4121259;28;20009;-61
2023/01/25 07:09:41;;;;;;;;;;;;;;;2.19;79.64;103047.31;4119911;28;20363;-61
2023/01/25 07:11:43;;;;;;;;;;;;;;;2.14;79.65;103056.38;4120809;28;20045;-61
2023/01/25 07:13:46;;;;;;;;;;;;;;;2.08;79.93;103048.63;4121635;28;20088;-61
2023/01/25 07:15:52;;;;;;;;;;;;;;;2.08;80.13;103040.63;4120490;28;20029;-61
2023/01/25 07:17:54;;;;;;;;;;;;;;;2.09;80.40;103041.53;4119672;28;20016;-60
2023/01/25 07:19:56;;;;;;;;;;;;;;;2.04;80.36;103041.72;4120012;28;20025;-59
2023/01/25 07:21:58;;;;;;;;;;;;;;;2.03;80.53;103049.78;4118389;28;20020;-61
2023/01/25 07:24:02;;;;;;;;;;;;;;;2.01;80.76;103041.84;4120149;28;20028;-60
2023/01/25 07:26:04;;;;;;;;;;;;;;;2.00;80.81;103041.91;4119168;28;20396;-61
2023/01/25 07:28:06;;;;;;;;;;;;;;;2.01;81.11;103040.97;4119341;28;20012;-64
2023/01/25 07:30:08;;;;;;;;;;;;;;;2.03;81.11;103034.63;4119630;28;20448;-61
2023/01/25 07:32:11;;;;;;;;;;;;;;;2.08;80.85;103034.44;4119642;28;20013;-62
2023/01/25 07:34:13;;;;;;;;;;;;;;;2.11;80.62;103031.66;4121068;28;20025;-61
2023/01/25 07:36:15;;;;;;;;;;;;;;;2.12;80.88;103028.91;4120990;28;20012;-61
2023/01/25 07:38:17;;;;;;;;;;;;;;;2.12;80.77;103023.59;4121315;28;20032;-62
2023/01/25 07:40:23;;;;;;;;;;;;;;;2.13;80.66;103028.00;4121378;28;20037;-62
2023/01/25 07:42:25;;;;;;;;;;;;;;;2.11;80.61;103024.50;4121042;28;20021;-61
2023/01/25 07:44:41;;;;;;;;;;;;;;;2.06;80.73;103018.50;4119063;28;20025;-61
2023/01/25 07:46:47;;;;;;;;;;;;;;;2.04;80.90;103019.50;4123761;28;20091;-61
2023/01/25 07:48:50;;;;;;;;;;;;;;;2.05;80.76;103023.91;4115643;28;21608;-62
2023/01/25 07:51:10;;;;;;;;;;;;;;;1.95;81.11;103010.97;4119782;28;20024;-61
2023/01/25 07:53:12;;;;;;;;;;;;;;;1.97;81.15;103013.56;4121621;28;21463;-62
2023/01/25 07:55:14;;;;;;;;;;;;;;;1.95;81.32;103015.44;4119583;28;20020;-62
2023/01/25 07:57:19;;;;;;;;;;;;;;;1.90;81.54;103009.44;4117330;28;20400;-61
2023/01/25 07:59:21;;;;;;;;;;;;;;;1.85;81.79;103008.75;4115692;28;19930;-62
2023/01/25 08:01:23;;;;;;;;;;;;;;;1.87;82.09;103014.91;4114085;28;20028;-62
2023/01/25 08:03:25;;;;;;;;;;;;;;;1.86;82.24;103007.84;4115588;28;20020;-62
2023/01/25 08:05:27;;;;;;;;;;;;;;;1.89;82.30;103010.38;4116832;28;20045;-60
2023/01/25 08:07:32;;;;;;;;;;;;;;;1.91;82.39;103003.16;4115465;28;19936;-62
2023/01/25 08:09:34;;;;;;;;;;;;;;;1.94;82.21;103005.72;4120928;28;20020;-62
2023/01/25 08:11:36;;;;;;;;;;;;;;;1.99;81.71;103006.38;4119142;28;20028;-61
2023/01/25 08:13:40;;;;;;;;;;;;;;;2.02;81.75;103005.38;4121020;28;20013;-60
2023/01/25 08:15:41;;;;;;;;;;;;;;;2.05;81.46;102995.44;4121211;28;20020;-62
2023/01/25 08:17:43;;;;;;;;;;;;;;;2.05;81.68;102998.13;4118477;28;20380;-61
2023/01/25 08:19:45;;;;;;;;;;;;;;;2.05;81.43;102989.25;4120066;28;20017;-62
2023/01/25 08:21:47;;;;;;;;;;;;;;;2.03;81.27;102997.31;4121103;28;20033;-61
2023/01/25 08:23:49;;;;;;;;;;;;;;;1.96;81.35;102986.06;4122568;28;20009;-62
2023/01/25 08:25:51;;;;;;;;;;;;;;;1.95;81.71;102986.97;4122972;28;20365;-62
2023/01/25 08:27:53;;;;;;;;;;;;;;;1.98;81.92;102975.34;4122881;28;20008;-61
2023/01/25 08:29:56;;;;;;;;;;;;;;;2.02;81.86;102984.91;4122547;28;20013;-62
2023/01/25 08:31:59;;;;;;;;;;;;;;;2.06;81.64;102981.19;4123344;28;20444;-62
2023/01/25 08:34:01;;;;;;;;;;;;;;;2.07;81.54;102980.28;4122740;28;20025;-62
2023/01/25 08:36:03;;;;;;;;;;;;;;;2.10;81.67;102979.25;4124242;28;20017;-62
2023/01/25 08:38:05;;;;;;;;;;;;;;;2.11;81.25;102970.34;4123991;28;20013;-61
2023/01/25 08:40:07;;;;;;;;;;;;;;;2.12;81.25;102970.28;4124148;28;20041;-62
2023/01/25 08:42:09;;;;;;;;;;;;;;;2.12;81.15;102980.94;4123639;28;20021;-62
2023/01/25 08:44:11;;;;;;;;;;;;;;;2.11;81.18;102973.84;4122389;28;20025;-61
2023/01/25 08:46:16;;;;;;;;;;;;;;;2.12;81.16;102974.75;4121959;28;20467;-62
2023/01/25 08:48:18;;;;;;;;;;;;;;;2.12;80.85;102980.94;4123183;28;19933;-61
2023/01/25 08:50:19;;;;;;;;;;;;;;;2.11;81.08;102973.00;4123527;28;20013;-61
2023/01/25 08:52:22;;;;;;;;;;;;;;;2.11;80.83;102981.84;4121609;28;20013;-61
2023/01/25 08:54:24;;;;;;;;;;;;;;;2.13;80.90;102985.34;4120116;28;20610;-62
2023/01/25 08:56:25;;;;;;;;;;;;;;;2.13;80.74;102985.34;4119869;28;20017;-61
2023/01/25 08:58:28;;;;;;;;;;;;;;;2.11;80.68;102973.84;4114821;28;20596;-62
2023/01/25 09:00:30;;;;;;;;;;;;;;;2.09;80.83;102978.41;4114539;28;20017;-62
2023/01/25 09:02:33;;;;;;;;;;;;;;;2.06;80.99;102975.00;4118339;28;20036;-62
2023/01/25 09:04:35;;;;;;;;;;;;;;;2.04;80.97;102985.75;4119190;28;20016;-62
2023/01/25 09:06:37;;;;;;;;;;;;;;;1.97;80.99;102984.25;4117266;28;20037;-61
2023/01/25 09:08:39;;;;;;;;;;;;;;;1.91;81.50;102980.06;4118066;28;19935;-61
2023/01/25 09:10:41;;;;;;;;;;;;;;;1.84;81.54;102975.94;4117348;28;20012;-62
2023/01/25 09:12:43;;;;;;;;;;;;;;;1.76;81.88;102973.59;4117093;28;20021;-62
2023/01/25 09:14:45;;;;;;;;;;;;;;;1.75;82.35;102976.31;4116324;28;20379;-61
2023/01/25 09:16:47;;;;;;;;;;;;;;;1.76;82.68;102978.91;4112069;28;20037;-62
2023/01/25 09:18:51;;;;;;;;;;;;;;;1.79;82.89;102975.25;4115494;28;20068;-61
2023/01/25 09:20:52;;;;;;;;;;;;;;;1.79;82.59;102972.59;4115315;28;20456;-61
2023/01/25 09:22:55;;;;;;;;;;;;;;;1.77;82.63;102980.66;4118059;28;20033;-61
2023/01/25 09:24:56;;;;;;;;;;;;;;;1.76;82.85;102972.72;4119198;28;20344;-61
2023/01/25 09:26:58;;;;;;;;;;;;;;;1.79;82.78;102973.44;4117843;28;20029;-61
2023/01/25 09:29:00;;;;;;;;;;;;;;;1.84;82.61;102975.94;4117182;28;20512;-62
2023/01/25 09:31:03;;;;;;;;;;;;;;;1.85;82.75;102979.44;4111242;28;20016;-61
2023/01/25 09:33:31;;;;;;;;;;;;;;;1.86;82.69;102968.72;4110980;28;20017;-61
2023/01/25 09:35:36;;;;;;;;;;;;;;;1.88;82.75;102973.97;4116082;28;20061;-61
2023/01/25 09:37:38;;;;;;;;;;;;;;;1.90;82.85;102965.00;4116671;28;20029;-61
2023/01/25 09:39:40;;;;;;;;;;;;;;;1.93;82.57;102966.69;4115339;28;20030;-61
2023/01/25 09:42:04;;;;;;;;;;;;;;;1.94;82.68;102958.63;4113947;28;20025;-62
2023/01/25 09:44:11;;;;;;;;;;;;;;;1.92;82.18;102957.78;4117584;28;20065;-62
2023/01/25 09:46:16;;;;;;;;;;;;;;;1.89;82.44;102954.41;4115986;28;20017;-61
2023/01/25 09:48:20;;;;;;;;;;;;;;;1.89;82.46;102963.25;4133335;28;20028;-61
2023/01/25 09:50:25;;;;;;;;;;;;;;;1.86;82.06;102959.88;4117612;28;20540;-61
2023/01/25 09:52:38;;;;;;;;;;;;;;;1.77;82.23;102954.00;4117667;28;20049;-59
2023/01/25 09:54:41;;;;;;;;;;;;;;;1.69;82.41;102953.44;4117087;28;20022;-61
2023/01/25 09:56:42;;;;;;;;;;;;;;;1.68;82.91;102953.50;4116362;28;20091;-61
2023/01/25 09:58:46;;;;;;;;;;;;;;;1.66;83.16;102950.91;4117821;28;20060;-61
2023/01/25 10:00:49;;;;;;;;;;;;;;;1.69;83.12;102945.44;4117763;28;20717;-60
2023/01/25 10:02:52;;;;;;;;;;;;;;;1.65;82.95;102951.84;4117745;28;20046;-61
2023/01/25 10:04:54;;;;;;;;;;;;;;;1.65;83.01;102935.88;4118408;28;20698;-62
2023/01/25 10:06:59;;;;;;;;;;;;;;;1.68;83.31;102942.84;4111359;28;20009;-60
2023/01/25 10:09:03;;;;;;;;;;;;;;;1.73;83.33;102946.22;4113803;28;20656;-61
2023/01/25 10:11:08;;;;;;;;;;;;;;;1.75;83.21;102942.53;4112596;28;20573;-61
2023/01/25 10:13:10;;;;;;;;;;;;;;;1.79;83.15;102936.16;4116676;28;20016;-62
2023/01/25 10:15:19;;;;;;;;;;;;;;;1.84;83.31;102925.28;4114325;28;20013;-62
2023/01/25 10:17:24;;;;;;;;;;;;;;;1.87;83.20;102927.81;4110833;28;20033;-61
2023/01/25 10:19:28;;;;;;;;;;;;;;;1.89;83.15;102919.75;4112752;28;20013;-62
2023/01/25 10:21:31;;;;;;;;;;;;;;;1.90;83.00;102927.69;4115306;28;20038;-61
2023/01/25 10:23:46;;;;;;;;;;;;;;;1.91;82.63;102920.56;4113926;28;20021;-61
2023/01/25 10:25:51;;;;;;;;;;;;;;;1.90;82.71;102914.38;4111790;28;20044;-60
2023/01/25 10:27:55;;;;;;;;;;;;;;;1.91;82.50;102917.88;4112459;28;20065;-61
2023/01/25 10:29:57;;;;;;;;;;;;;;;1.93;82.51;102910.72;4112790;28;20017;-61
2023/01/25 10:32:01;;;;;;;;;;;;;;;1.94;82.51;102907.09;4112739;28;19937;-61
2023/01/25 10:34:08;;;;;;;;;;;;;;;1.94;82.27;102896.44;4112981;28;20020;-62
2023/01/25 10:36:12;;;;;;;;;;;;;;;1.89;82.24;102893.97;4114502;28;20025;-60
2023/01/25 10:38:15;;;;;;;;;;;;;;;1.84;82.17;102897.78;4112716;28;20041;-61
2023/01/25 10:40:18;;;;;;;;;;;;;;;1.77;82.22;102882.06;4114249;28;20029;-61
2023/01/25 10:42:21;;;;;;;;;;;;;;;1.69;82.31;102889.50;4112774;28;20021;-61
2023/01/25 10:44:24;;;;;;;;;;;;;;;1.67;82.88;102886.06;4112726;28;20036;-62
2023/01/25 10:46:26;;;;;;;;;;;;;;;1.65;83.19;102887.06;4113909;28;20025;-61
2023/01/25 10:48:30;;;;;;;;;;;;;;;1.59;83.29;102874.88;4116643;28;20016;-62
2023/01/25 10:50:45;;;;;;;;;;;;;;;1.58;83.67;102874.00;4116462;28;20675;-62